createdAt,value
2019-04-26T00:02:07.707Z,14.60
2019-04-26T00:05:17.075Z,14.61
2019-04-26T00:08:24.861Z,14.39
2019-04-26T00:11:40.490Z,14.16
2019-04-26T00:15:02.529Z,14.00
2019-04-26T00:18:12.733Z,13.84
2019-04-26T00:21:19.899Z,13.76
2019-04-26T00:24:28.552Z,13.56
2019-04-26T00:27:36.893Z,13.54
2019-04-26T00:30:44.613Z,13.72
2019-04-26T00:33:52.329Z,13.68
2019-04-26T00:36:59.636Z,13.95
2019-04-26T00:40:10.374Z,14.08
2019-04-26T00:43:20.572Z,14.16
2019-04-26T00:46:30.548Z,14.02
2019-04-26T00:49:43.829Z,13.94
2019-04-26T00:52:50.677Z,13.91
2019-04-26T00:56:00.106Z,14.00
2019-04-26T00:59:09.801Z,14.00
2019-04-26T01:02:25.072Z,14.02
2019-04-26T01:05:35.621Z,13.99
2019-04-26T01:08:42.879Z,13.83
2019-04-26T01:11:50.772Z,13.73
2019-04-26T01:14:58.299Z,13.61
2019-04-26T01:18:05.764Z,13.49
2019-04-26T01:21:18.818Z,13.31
2019-04-26T01:24:31.802Z,13.16
2019-04-26T01:27:39.756Z,12.99
2019-04-26T01:30:48.389Z,12.91
2019-04-26T01:37:24.732Z,12.58
2019-04-26T01:40:35.910Z,12.46
2019-04-26T01:44:11.092Z,12.32
2019-04-26T01:47:18.528Z,12.19
2019-04-26T01:50:29.459Z,12.14
2019-04-26T01:53:37.477Z,11.97
2019-04-26T01:56:49.309Z,11.85
2019-04-26T02:00:01.962Z,11.86
2019-04-26T02:03:22.931Z,11.87
2019-04-26T02:06:34.858Z,11.71
2019-04-26T02:09:40.622Z,11.53
2019-04-26T02:12:48.952Z,11.49
2019-04-26T02:15:56.372Z,11.45
2019-04-26T02:19:04.587Z,11.31
2019-04-26T02:22:31.969Z,11.20
2019-04-26T02:25:39.764Z,11.16
2019-04-26T02:28:48.811Z,11.06
2019-04-26T02:32:03.653Z,10.98
2019-04-26T02:35:11.641Z,10.99
2019-04-26T02:38:19.786Z,11.09
2019-04-26T02:41:29.943Z,11.43
2019-04-26T02:44:56.983Z,11.54
2019-04-26T02:48:19.100Z,11.22
2019-04-26T02:51:34.092Z,10.95
2019-04-26T02:54:57.799Z,11.43
2019-04-26T02:58:05.396Z,11.34
2019-04-26T03:01:12.989Z,11.46
2019-04-26T03:04:24.295Z,11.43
2019-04-26T03:08:14.542Z,11.67
2019-04-26T03:11:27.271Z,11.69
2019-04-26T03:14:49.662Z,11.25
2019-04-26T03:18:33.472Z,10.94
2019-04-26T03:21:54.952Z,10.72
2019-04-26T03:25:36.955Z,10.75
2019-04-26T03:29:04.407Z,11.11
2019-04-26T03:33:23.855Z,10.93
2019-04-26T03:37:29.524Z,11.37
2019-04-26T03:40:55.135Z,10.84
2019-04-26T03:44:24.823Z,10.83
2019-04-26T03:47:42.360Z,10.84
2019-04-26T03:51:04.904Z,10.69
2019-04-26T03:54:20.968Z,10.54
2019-04-26T03:57:47.117Z,10.77
2019-04-26T04:01:01.166Z,10.72
2019-04-26T04:04:28.716Z,10.58
2019-04-26T04:07:45.961Z,10.22
2019-04-26T04:11:00.600Z,10.00
2019-04-26T04:14:27.083Z,10.19
2019-04-26T04:17:50.808Z,10.31
2019-04-26T04:21:48.391Z,9.99
2019-04-26T04:25:02.952Z,9.99
2019-04-26T04:29:39.946Z,9.81
2019-04-26T04:32:59.981Z,9.95
2019-04-26T04:36:21.501Z,9.96
2019-04-26T04:39:53.528Z,9.82
2019-04-26T04:43:31.891Z,9.79
2019-04-26T04:47:32.848Z,9.96
2019-04-26T04:50:51.230Z,9.91
2019-04-26T04:54:19.568Z,9.85
2019-04-26T04:58:03.981Z,9.84
2019-04-26T05:01:44.297Z,9.66
2019-04-26T05:05:26.728Z,9.83
2019-04-26T05:09:09.088Z,9.85
2019-04-26T05:12:46.235Z,9.81
2019-04-26T05:16:33.320Z,9.72
2019-04-26T05:20:29.864Z,9.75
2019-04-26T05:24:13.142Z,9.96
2019-04-26T05:28:02.113Z,9.90
2019-04-26T05:31:37.003Z,10.01
2019-04-26T05:35:05.238Z,9.93
2019-04-26T05:38:51.175Z,9.89
2019-04-26T05:42:40.377Z,10.00
2019-04-26T05:46:31.214Z,10.22
2019-04-26T05:50:44.902Z,10.48
2019-04-26T05:54:58.474Z,10.54
2019-04-26T05:58:39.007Z,11.04
2019-04-26T06:02:30.447Z,11.49
2019-04-26T06:06:30.422Z,11.71
2019-04-26T06:10:30.099Z,11.93
2019-04-26T06:14:51.423Z,12.15
2019-04-26T06:18:40.220Z,12.41
2019-04-26T06:22:28.040Z,12.48
2019-04-26T06:25:57.521Z,12.17
2019-04-26T06:29:18.126Z,11.82
2019-04-26T06:32:35.840Z,12.75
2019-04-26T06:35:48.738Z,13.14
2019-04-26T06:39:34.481Z,13.17
2019-04-26T06:43:05.444Z,13.45
2019-04-26T06:46:56.216Z,13.75
2019-04-26T06:50:24.807Z,13.00
2019-04-26T06:54:05.605Z,13.03
2019-04-26T06:58:01.406Z,12.93
2019-04-26T07:01:28.902Z,13.30
2019-04-26T07:05:33.289Z,13.11
2019-04-26T07:09:02.221Z,12.65
2019-04-26T07:12:41.312Z,14.50
2019-04-26T07:16:30.035Z,16.39
2019-04-26T07:20:31.852Z,15.89
2019-04-26T07:24:22.260Z,14.76
2019-04-26T07:28:03.314Z,14.21
2019-04-26T07:31:17.274Z,15.41
2019-04-26T07:34:52.576Z,15.30
2019-04-26T07:39:34.137Z,15.37
2019-04-26T07:43:41.739Z,16.15
2019-04-26T07:47:41.502Z,15.60
2019-04-26T07:51:51.869Z,15.55
2019-04-26T07:55:34.238Z,15.84
2019-04-26T07:59:55.475Z,16.31
2019-04-26T08:03:43.497Z,16.55
2019-04-26T08:07:04.984Z,15.08
2019-04-26T08:10:19.392Z,14.65
2019-04-26T08:13:32.581Z,14.05
2019-04-26T08:17:28.117Z,13.70
2019-04-26T08:21:12.367Z,13.63
2019-04-26T08:24:27.785Z,13.29
2019-04-26T08:27:36.221Z,13.29
2019-04-26T08:30:47.704Z,14.12
2019-04-26T08:34:03.952Z,15.98
2019-04-26T08:37:22.547Z,15.66
2019-04-26T08:40:33.123Z,15.94
2019-04-26T08:43:59.792Z,15.32
2019-04-26T08:47:36.735Z,16.19
2019-04-26T08:50:47.307Z,16.38
2019-04-26T08:53:57.913Z,17.29
2019-04-26T08:57:10.003Z,17.34
2019-04-26T09:00:28.971Z,16.74
2019-04-26T09:04:01.698Z,15.49
2019-04-26T09:07:17.400Z,16.12
2019-04-26T09:10:28.692Z,16.14
2019-04-26T09:13:42.919Z,15.07
2019-04-26T09:16:50.943Z,14.56
2019-04-26T09:19:58.384Z,14.28
2019-04-26T09:23:40.211Z,14.10
2019-04-26T09:27:05.608Z,14.21
2019-04-26T09:30:44.071Z,14.81
2019-04-26T09:33:56.216Z,14.84
2019-04-26T09:37:04.153Z,14.83
2019-04-26T09:40:19.747Z,14.57
2019-04-26T09:43:31.497Z,14.11
2019-04-26T09:46:52.939Z,13.92
2019-04-26T09:50:21.204Z,13.58
2019-04-26T09:53:28.842Z,13.71
2019-04-26T09:56:36.519Z,13.47
2019-04-26T09:59:44.036Z,13.15
2019-04-26T10:02:51.740Z,13.19
2019-04-26T10:05:59.630Z,13.02
2019-04-26T10:09:17.311Z,12.96
2019-04-26T10:12:32.631Z,12.50
2019-04-26T10:16:12.402Z,12.64
2019-04-26T10:19:31.706Z,12.53
2019-04-26T10:22:39.589Z,12.35
2019-04-26T10:25:47.265Z,12.09
2019-04-26T10:28:57.077Z,12.08
2019-04-26T10:32:04.530Z,12.13
2019-04-26T10:35:12.306Z,12.15
2019-04-26T10:38:23.577Z,12.03
2019-04-26T10:41:28.796Z,12.10
2019-04-26T10:44:39.890Z,12.06
2019-04-26T10:47:46.121Z,11.90
2019-04-26T10:50:53.768Z,11.86
2019-04-26T10:54:10.500Z,11.83
2019-04-26T10:57:29.269Z,11.90
2019-04-26T11:00:39.228Z,11.84
2019-04-26T11:03:46.487Z,12.05
2019-04-26T11:06:54.278Z,11.86
2019-04-26T11:10:03.008Z,11.71
2019-04-26T11:13:10.633Z,11.69
2019-04-26T11:16:18.880Z,11.22
2019-04-26T11:19:26.810Z,11.07
2019-04-26T11:22:37.635Z,11.05
2019-04-26T11:25:44.076Z,11.11
2019-04-26T11:28:55.523Z,11.20
2019-04-26T11:32:02.695Z,11.26
2019-04-26T11:35:10.324Z,11.11
2019-04-26T11:38:17.780Z,11.04
2019-04-26T11:41:25.487Z,10.85
2019-04-26T11:44:33.190Z,10.93
2019-04-26T11:47:54.258Z,10.67
2019-04-26T11:50:52.209Z,10.44
2019-04-26T11:53:59.487Z,10.42
2019-04-26T11:57:08.211Z,10.24
2019-04-26T12:00:27.429Z,10.14
2019-04-26T12:03:34.397Z,10.10
2019-04-26T12:06:50.131Z,9.93
2019-04-26T12:09:59.161Z,10.16
2019-04-26T12:13:06.526Z,10.33
2019-04-26T12:16:14.678Z,10.41
2019-04-26T12:19:23.717Z,10.27
2019-04-26T12:22:31.193Z,9.93
2019-04-26T12:25:42.972Z,9.77
2019-04-26T12:28:48.009Z,9.62
2019-04-26T12:31:55.515Z,9.54
2019-04-26T12:35:03.319Z,9.18
2019-04-26T12:38:10.490Z,9.48
2019-04-26T12:41:39.252Z,9.58
2019-04-26T12:44:41.174Z,9.54
2019-04-26T12:48:22.359Z,9.12
2019-04-26T12:51:30.442Z,9.06
2019-04-26T12:54:39.013Z,8.86
2019-04-26T12:57:48.166Z,8.59
2019-04-26T13:00:56.045Z,8.68
2019-04-26T13:04:04.681Z,8.76
2019-04-26T13:07:23.731Z,8.61
2019-04-26T13:10:49.954Z,8.54
2019-04-26T13:14:01.038Z,8.29
2019-04-26T13:17:11.994Z,8.30
2019-04-26T13:20:20.026Z,8.63
2019-04-26T13:23:32.301Z,9.11
2019-04-26T13:26:40.554Z,9.30
2019-04-26T13:30:02.450Z,9.43
2019-04-26T13:33:10.115Z,9.73
2019-04-26T13:36:18.573Z,9.46
2019-04-26T13:39:51.195Z,9.08
2019-04-26T13:43:00.265Z,9.07
2019-04-26T13:46:30.546Z,8.67
2019-04-26T13:50:01.735Z,8.16
2019-04-26T13:53:09.311Z,8.16
2019-04-26T13:56:16.614Z,8.02
2019-04-26T13:59:24.107Z,7.90
2019-04-26T14:02:31.273Z,7.96
2019-04-26T14:05:38.858Z,7.74
2019-04-26T14:08:47.598Z,7.63
2019-04-26T14:11:58.075Z,7.55
2019-04-26T14:15:08.465Z,7.61
2019-04-26T14:18:14.752Z,7.68
2019-04-26T14:21:22.737Z,7.68
2019-04-26T14:24:38.610Z,7.70
2019-04-26T14:27:49.999Z,7.70
2019-04-26T14:30:57.626Z,7.49
2019-04-26T14:34:07.019Z,7.76
2019-04-26T14:37:15.595Z,8.22
2019-04-26T14:40:24.095Z,8.50
2019-04-26T14:43:40.532Z,8.44
2019-04-26T14:46:48.560Z,8.59
2019-04-26T14:49:53.428Z,8.97
2019-04-26T14:53:02.458Z,8.85
2019-04-26T14:56:11.065Z,8.96
2019-04-26T14:59:39.340Z,9.15
2019-04-26T15:03:03.282Z,8.93
2019-04-26T15:06:21.516Z,8.69
2019-04-26T15:09:33.074Z,8.27
2019-04-26T15:12:46.124Z,8.21
2019-04-26T15:15:48.624Z,8.21
2019-04-26T15:18:56.287Z,8.15
2019-04-26T15:22:10.405Z,7.85
2019-04-26T15:25:16.251Z,7.54
2019-04-26T15:28:23.628Z,7.54
2019-04-26T15:31:32.984Z,7.52
2019-04-26T15:34:40.660Z,7.59
2019-04-26T15:37:49.414Z,7.45
2019-04-26T15:41:19.508Z,7.60
2019-04-26T15:44:35.525Z,7.54
2019-04-26T15:48:02.772Z,7.55
2019-04-26T15:51:10.161Z,7.59
2019-04-26T15:54:17.846Z,7.52
2019-04-26T15:57:30.888Z,7.65
2019-04-26T16:00:36.262Z,7.53
2019-04-26T16:03:45.846Z,7.88
2019-04-26T16:06:53.548Z,7.78
2019-04-26T16:10:00.800Z,7.80
2019-04-26T16:13:17.989Z,7.60
2019-04-26T16:16:20.698Z,7.61
2019-04-26T16:19:27.858Z,7.31
2019-04-26T16:22:37.725Z,7.31
2019-04-26T16:25:48.006Z,7.19
2019-04-26T16:29:18.168Z,7.25
2019-04-26T16:32:58.855Z,7.19
2019-04-26T16:36:06.439Z,7.25
2019-04-26T16:39:13.885Z,7.55
2019-04-26T16:42:23.313Z,7.52
2019-04-26T16:45:32.680Z,7.81
2019-04-26T16:48:40.005Z,7.91
2019-04-26T16:51:53.878Z,8.32
2019-04-26T16:55:02.336Z,8.28
2019-04-26T16:58:06.095Z,8.57
2019-04-26T17:01:15.136Z,8.37
2019-04-26T17:04:29.037Z,8.57
2019-04-26T17:07:39.181Z,8.75
2019-04-26T17:10:43.172Z,8.60
2019-04-26T17:13:56.471Z,8.68
2019-04-26T17:17:00.608Z,8.58
2019-04-26T17:20:10.786Z,8.42
2019-04-26T17:23:40.270Z,8.38
2019-04-26T17:26:54.923Z,8.41
2019-04-26T17:30:05.348Z,8.27
2019-04-26T17:33:13.403Z,8.30
2019-04-26T17:36:21.872Z,8.22
2019-04-26T17:39:30.369Z,8.14
2019-04-26T17:42:37.993Z,7.81
2019-04-26T17:45:46.037Z,7.88
2019-04-26T17:48:53.742Z,7.94
2019-04-26T17:52:02.020Z,7.73
2019-04-26T17:55:11.858Z,7.70
2019-04-26T17:58:27.811Z,7.71
2019-04-26T18:01:42.875Z,7.52
2019-04-26T18:04:40.706Z,7.54
2019-04-26T18:07:56.243Z,7.39
2019-04-26T18:10:58.190Z,7.31
2019-04-26T18:14:08.210Z,7.27
2019-04-26T18:17:32.984Z,7.10
2019-04-26T18:21:05.029Z,7.06
2019-04-26T18:24:13.329Z,7.09
2019-04-26T18:27:21.102Z,7.26
2019-04-26T18:30:28.648Z,6.83
2019-04-26T18:33:36.048Z,6.79
2019-04-26T18:36:43.686Z,6.69
2019-04-26T18:39:51.290Z,6.67
2019-04-26T18:42:59.057Z,6.59
2019-04-26T18:46:15.645Z,6.51
2019-04-26T18:49:26.993Z,6.42
2019-04-26T18:52:37.318Z,6.45
2019-04-26T18:55:45.614Z,6.16
2019-04-26T18:58:55.656Z,6.28
2019-04-26T19:02:04.095Z,6.19
2019-04-26T19:05:14.130Z,6.35
2019-04-26T19:08:27.016Z,6.57
2019-04-26T19:11:32.706Z,6.64
2019-04-26T19:15:03.320Z,6.59
2019-04-26T19:18:22.199Z,6.69
2019-04-26T19:21:38.959Z,6.71
2019-04-26T19:24:44.194Z,6.66
2019-04-26T19:27:53.888Z,6.70
2019-04-26T19:31:02.420Z,6.75
2019-04-26T19:34:11.579Z,6.61
2019-04-26T19:37:19.406Z,6.81
2019-04-26T19:40:27.780Z,6.81
2019-04-26T19:43:39.215Z,6.61
2019-04-26T19:46:54.075Z,6.77
2019-04-26T19:50:13.561Z,6.78
2019-04-26T19:53:47.354Z,6.85
2019-04-26T19:57:03.659Z,6.80
2019-04-26T20:00:11.065Z,6.66
2019-04-26T20:03:19.739Z,6.55
2019-04-26T20:06:27.273Z,6.66
2019-04-26T20:09:34.890Z,6.68
2019-04-26T20:12:42.490Z,6.97
2019-04-26T20:15:52.829Z,7.02
2019-04-26T20:19:00.687Z,6.97
2019-04-26T20:22:08.525Z,6.88
2019-04-26T20:25:16.730Z,7.01
2019-04-26T20:28:24.245Z,6.82
2019-04-26T20:31:54.511Z,6.71
2019-04-26T20:35:26.760Z,6.69
2019-04-26T20:38:35.847Z,6.54
2019-04-26T20:41:40.850Z,6.47
2019-04-26T20:44:51.407Z,6.54
2019-04-26T20:47:58.987Z,6.54
2019-04-26T20:51:10.785Z,6.50
2019-04-26T20:54:17.486Z,6.61
2019-04-26T20:57:26.536Z,6.80
2019-04-26T21:00:36.600Z,6.60
2019-04-26T21:03:45.965Z,6.57
2019-04-26T21:06:53.817Z,6.50
2019-04-26T21:10:01.237Z,6.70
2019-04-26T21:13:08.923Z,6.67
2019-04-26T21:16:16.763Z,6.64
2019-04-26T21:19:24.446Z,6.55
2019-04-26T21:22:31.995Z,6.48
2019-04-26T21:25:47.161Z,6.61
2019-04-26T21:29:13.432Z,6.67
2019-04-26T21:32:47.169Z,6.65
2019-04-26T21:36:20.751Z,6.78
2019-04-26T21:39:39.375Z,6.83
2019-04-26T21:42:45.559Z,6.72
2019-04-26T21:45:57.568Z,6.87
2019-04-26T21:49:03.654Z,6.82
2019-04-26T21:52:11.402Z,6.85
2019-04-26T21:55:19.212Z,6.76
2019-04-26T21:58:26.913Z,6.84
2019-04-26T22:01:34.805Z,6.92
2019-04-26T22:04:43.613Z,6.78
2019-04-26T22:07:53.403Z,6.78
2019-04-26T22:11:00.881Z,6.96
2019-04-26T22:14:19.863Z,6.89
2019-04-26T22:17:40.342Z,7.00
2019-04-26T22:20:54.580Z,6.97
2019-04-26T22:24:16.962Z,6.92
2019-04-26T22:27:25.281Z,7.00
2019-04-26T22:30:34.073Z,6.89
2019-04-26T22:33:42.862Z,6.94
2019-04-26T22:36:50.453Z,7.00
2019-04-26T22:40:00.480Z,6.97
2019-04-26T22:43:26.626Z,6.97
2019-04-26T22:46:54.345Z,6.95
2019-04-26T22:50:01.924Z,6.86
2019-04-26T22:53:11.841Z,7.13
2019-04-26T22:56:19.001Z,7.13
2019-04-26T22:59:26.862Z,7.12
2019-04-26T23:02:34.178Z,7.12
2019-04-26T23:05:43.273Z,7.16
2019-04-26T23:08:51.238Z,7.01
2019-04-26T23:12:10.413Z,7.20
2019-04-26T23:15:33.792Z,7.25
2019-04-26T23:18:51.280Z,7.32
2019-04-26T23:21:59.125Z,7.20
2019-04-26T23:25:06.596Z,7.15
2019-04-26T23:28:14.129Z,7.22
2019-04-26T23:31:23.604Z,7.21
2019-04-26T23:34:31.023Z,7.26
2019-04-26T23:37:38.595Z,7.25
2019-04-26T23:40:46.361Z,7.12
2019-04-26T23:43:56.527Z,7.17
2019-04-26T23:47:18.211Z,7.18
2019-04-26T23:50:14.046Z,7.29
2019-04-26T23:53:21.532Z,7.38
2019-04-26T23:56:28.910Z,7.32
2019-04-26T23:59:36.362Z,7.38
